Time;durP1;ratioP1;P1;durP2;ratioP2;P2;SDS_P1;SDS_P2;PMS_P1;PMS_P2;Temp;Humidity;BMP_temperature;BMP_pressure;BME280_temperature;BME280_humidity;BME280_pressure;Samples;Min_cycle;Max_cycle;Signal;HPM_P1;HPM_P2
2022/08/12 00:44:47;;;;;;;3.08;2.47;;;18.80;99.90;;;;;;5031020;28;20084;-65
2022/08/12 00:47:16;;;;;;;3.65;2.38;;;18.80;99.90;;;;;;5029503;28;20057;-65
2022/08/12 00:49:43;;;;;;;5.80;2.20;;;18.90;99.90;;;;;;5030906;28;20107;-65
2022/08/12 00:52:09;;;;;;;3.33;2.50;;;18.90;99.90;;;;;;5027967;28;20426;-65
2022/08/12 00:54:37;;;;;;;4.53;2.42;;;18.90;99.90;;;;;;5031178;28;20031;-65
2022/08/12 00:57:14;;;;;;;4.93;2.47;;;18.90;99.90;;;;;;5029418;28;20032;-65
2022/08/12 00:59:57;;;;;;;6.45;2.63;;;19.10;99.90;;;;;;5018429;28;20025;-65
2022/08/12 01:02:25;;;;;;;5.75;2.22;;;19.10;99.90;;;;;;5028920;28;20036;-64
2022/08/12 01:13:15;;;;;;;2.80;2.10;;;18.90;99.90;;;;;;5027753;28;20398;-64
2022/08/12 01:15:42;;;;;;;6.93;2.42;;;18.80;99.90;;;;;;5030816;28;20232;-64
2022/08/12 01:18:09;;;;;;;2.85;2.35;;;18.80;99.90;;;;;;5028719;28;20480;-64
2022/08/12 01:20:48;;;;;;;3.80;2.40;;;18.80;99.90;;;;;;5025763;28;20128;-64
2022/08/12 01:23:40;;;;;;;5.65;2.45;;;18.70;99.90;;;;;;5028044;28;20033;-65
2022/08/12 01:26:10;;;;;;;8.35;2.60;;;18.80;99.90;;;;;;5022586;28;20045;-65
2022/08/12 01:28:39;;;;;;;4.13;2.22;;;18.80;99.90;;;;;;5030359;28;20075;-65
2022/08/12 01:31:05;;;;;;;3.38;2.13;;;18.80;99.90;;;;;;5027716;28;20032;-65
2022/08/12 01:33:40;;;;;;;8.63;2.85;;;18.80;99.90;;;;;;5030063;28;20068;-65
2022/08/12 01:36:11;;;;;;;4.15;2.60;;;18.70;99.90;;;;;;5028134;28;20027;-65
2022/08/12 01:38:39;;;;;;;5.15;2.42;;;18.70;99.90;;;;;;5030388;28;20091;-65
2022/08/12 01:41:10;;;;;;;7.10;2.20;;;18.70;99.90;;;;;;5027456;28;20045;-65
2022/08/12 01:43:37;;;;;;;3.90;2.30;;;18.60;99.90;;;;;;5029996;28;20049;-66
2022/08/12 01:46:39;;;;;;;4.45;2.30;;;18.50;99.90;;;;;;5029657;28;20022;-65
2022/08/12 01:49:49;;;;;;;3.60;2.58;;;18.40;99.90;;;;;;5004854;28;20516;-63
2022/08/12 01:52:55;;;;;;;3.03;2.22;;;18.40;99.90;;;;;;5008995;28;20128;-65
2022/08/12 01:55:29;;;;;;;3.55;2.08;;;18.30;99.90;;;;;;5021671;28;20041;-66
2022/08/12 01:58:17;;;;;;;4.70;2.70;;;18.20;99.90;;;;;;5026048;28;20029;-65
2022/08/12 02:00:57;;;;;;;4.07;3.00;;;18.20;99.90;;;;;;5029636;28;20030;-65
2022/08/12 02:12:48;;;;;;;4.32;2.50;;;18.10;99.90;;;;;;5024435;28;20072;-65
2022/08/12 02:15:34;;;;;;;5.82;3.13;;;18.10;99.90;;;;;;5027858;28;20034;-65
2022/08/12 02:18:42;;;;;;;3.42;2.50;;;18.00;99.90;;;;;;5028780;28;20068;-66
2022/08/12 02:21:25;;;;;;;3.72;2.50;;;17.90;99.90;;;;;;5023631;28;20032;-65
2022/08/12 02:23:52;;;;;;;5.60;2.78;;;17.90;99.90;;;;;;5029053;28;20377;-65
2022/08/12 02:26:19;;;;;;;7.00;3.05;;;17.80;99.90;;;;;;5025829;28;20041;-66
2022/08/12 02:28:46;;;;;;;6.32;2.63;;;17.80;99.90;;;;;;5028993;28;20029;-65
2022/08/12 02:31:12;;;;;;;6.53;2.83;;;17.80;99.90;;;;;;5027780;28;20029;-65
2022/08/12 02:33:40;;;;;;;6.22;2.80;;;17.90;99.90;;;;;;5029531;28;20037;-66
2022/08/12 02:36:06;;;;;;;4.45;3.15;;;18.00;99.90;;;;;;5027014;28;20032;-66
2022/08/12 02:38:32;;;;;;;6.10;2.83;;;18.00;99.90;;;;;;5028752;28;20545;-66
2022/08/12 02:41:01;;;;;;;6.15;3.80;;;18.20;99.90;;;;;;5029198;28;20038;-62
2022/08/12 02:43:59;;;;;;;3.70;2.78;;;18.10;99.90;;;;;;5027654;28;20044;-65
2022/08/12 02:46:29;;;;;;;4.97;2.47;;;18.20;99.90;;;;;;4980696;28;20048;-65
2022/08/12 02:49:18;;;;;;;6.78;2.60;;;18.20;99.90;;;;;;5028318;28;20037;-65
2022/08/12 02:51:43;;;;;;;3.30;2.70;;;18.10;99.90;;;;;;5023213;28;20029;-65
2022/08/12 02:54:10;;;;;;;7.30;3.35;;;18.00;99.90;;;;;;5027186;28;20109;-65
2022/08/12 02:56:41;;;;;;;5.07;2.85;;;17.90;99.90;;;;;;5027680;28;20022;-65
2022/08/12 02:59:15;;;;;;;3.95;2.90;;;17.80;99.90;;;;;;5024822;28;20032;-65
2022/08/12 03:02:10;;;;;;;4.93;2.47;;;17.60;99.90;;;;;;5028943;28;20042;-65
2022/08/12 03:04:46;;;;;;;5.32;3.28;;;17.50;99.90;;;;;;5020397;28;20036;-65
2022/08/12 03:07:18;;;;;;;7.63;3.10;;;17.50;99.90;;;;;;5020554;28;20033;-65
2022/08/12 03:10:04;;;;;;;4.72;3.13;;;17.50;99.90;;;;;;5022704;28;20140;-65
2022/08/12 03:12:35;;;;;;;4.38;3.05;;;17.60;99.90;;;;;;5022463;28;20029;-65
2022/08/12 03:15:05;;;;;;;4.68;3.03;;;17.60;99.90;;;;;;5029111;28;20018;-65
2022/08/12 03:17:45;;;;;;;7.82;3.40;;;17.70;99.90;;;;;;5029321;28;20036;-65
2022/08/12 03:20:15;;;;;;;5.78;2.92;;;17.70;99.90;;;;;;5016736;28;20025;-66
2022/08/12 03:22:43;;;;;;;4.75;2.72;;;17.70;99.90;;;;;;5028865;28;20083;-65
2022/08/12 03:25:23;;;;;;;6.68;3.15;;;17.70;99.90;;;;;;5026664;28;20018;-66
2022/08/12 03:27:54;;;;;;;5.00;2.92;;;17.60;99.90;;;;;;5027676;28;20494;-66
2022/08/12 03:30:30;;;;;;;5.10;3.40;;;17.60;99.90;;;;;;5027085;28;20068;-66
2022/08/12 03:32:56;;;;;;;9.13;3.40;;;17.60;99.90;;;;;;5029005;28;20025;-66
2022/08/12 03:35:26;;;;;;;6.90;2.65;;;17.50;99.90;;;;;;5025227;28;20108;-65
2022/08/12 03:37:57;;;;;;;6.75;3.28;;;17.50;99.90;;;;;;5028793;28;20448;-65
2022/08/12 04:02:44;;;;;;;6.63;3.67;;;17.60;99.90;;;;;;5028606;28;20113;-62
2022/08/12 04:05:12;;;;;;;12.95;3.55;;;17.60;99.90;;;;;;5030163;28;20473;-62
2022/08/12 04:07:38;;;;;;;7.78;3.38;;;17.50;99.90;;;;;;5045574;28;20646;-61
2022/08/12 04:10:05;;;;;;;5.57;3.30;;;17.40;99.90;;;;;;5031892;28;20021;-60
2022/08/12 04:15:18;;;;;;;6.53;3.22;;;17.30;99.90;;;;;;5030369;28;20056;-60
2022/08/12 04:17:46;;;;;;;7.90;3.58;;;17.20;99.90;;;;;;5032153;28;20030;-60
2022/08/12 04:20:17;;;;;;;6.57;3.22;;;17.20;99.90;;;;;;5030022;28;20026;-61
2022/08/12 04:22:44;;;;;;;8.55;4.22;;;17.20;99.90;;;;;;5029699;28;20091;-61
2022/08/12 04:25:11;;;;;;;4.70;3.42;;;17.20;99.90;;;;;;5030094;28;20496;-60
2022/08/12 04:27:37;;;;;;;5.35;3.28;;;17.20;99.90;;;;;;5031007;28;20039;-60
2022/08/12 04:30:06;;;;;;;6.70;3.80;;;17.30;99.90;;;;;;5031726;28;20104;-60
2022/08/12 04:32:33;;;;;;;8.23;4.22;;;17.30;99.90;;;;;;5031277;28;20473;-61
2022/08/12 04:35:00;;;;;;;9.52;4.07;;;17.30;99.90;;;;;;5030714;28;20032;-62
2022/08/12 04:37:25;;;;;;;11.48;4.75;;;17.30;99.90;;;;;;5029811;28;20044;-63
2022/08/12 04:39:52;;;;;;;9.15;4.68;;;17.40;99.90;;;;;;5031382;28;20029;-61
2022/08/12 04:42:19;;;;;;;7.30;4.22;;;17.40;99.90;;;;;;5028742;28;20041;-61
2022/08/12 04:44:45;;;;;;;10.18;5.00;;;17.50;99.90;;;;;;5029468;28;20091;-61
2022/08/12 04:47:13;;;;;;;9.07;4.60;;;17.50;99.90;;;;;;5029667;28;20037;-61
2022/08/12 04:49:39;;;;;;;5.30;3.72;;;17.60;99.90;;;;;;5031161;28;20033;-61
2022/08/12 04:52:05;;;;;;;7.88;4.28;;;17.60;99.90;;;;;;5029378;28;20024;-60
2022/08/12 04:54:32;;;;;;;8.90;4.22;;;17.70;99.90;;;;;;5028699;28;20045;-60
2022/08/12 04:56:59;;;;;;;7.53;4.18;;;17.60;99.90;;;;;;5030573;28;20039;-60
2022/08/12 04:59:25;;;;;;;8.50;4.20;;;17.60;99.90;;;;;;5029268;28;20025;-60
2022/08/12 05:01:52;;;;;;;7.25;3.92;;;17.60;99.90;;;;;;5030771;28;20029;-60
2022/08/12 05:04:20;;;;;;;9.07;4.38;;;17.50;99.90;;;;;;5028167;28;20278;-62
2022/08/12 05:06:47;;;;;;;9.93;4.28;;;17.50;99.90;;;;;;5029554;28;20398;-61
2022/08/12 05:09:14;;;;;;;11.65;4.30;;;17.50;99.90;;;;;;5029007;28;20053;-61
2022/08/12 05:11:40;;;;;;;9.68;4.03;;;17.60;99.90;;;;;;5029759;28;20051;-59
2022/08/12 05:14:07;;;;;;;8.45;4.18;;;17.60;99.90;;;;;;5020178;28;20029;-61
2022/08/12 05:16:34;;;;;;;11.18;4.05;;;17.70;99.90;;;;;;5030637;28;20076;-61
2022/08/12 05:19:00;;;;;;;8.00;4.38;;;17.80;99.90;;;;;;5029652;28;20346;-61
2022/08/12 05:21:26;;;;;;;11.75;4.60;;;17.90;99.90;;;;;;5028433;28;20025;-60
2022/08/12 05:23:53;;;;;;;9.30;4.85;;;18.00;99.90;;;;;;5030376;28;20132;-61
2022/08/12 05:26:19;;;;;;;8.68;4.55;;;18.10;99.90;;;;;;5028922;28;20079;-61
2022/08/12 05:28:45;;;;;;;8.05;4.35;;;18.20;99.90;;;;;;5030104;28;20116;-61
2022/08/12 05:31:11;;;;;;;7.88;4.10;;;18.20;99.90;;;;;;5028568;28;20401;-61
2022/08/12 05:33:38;;;;;;;6.10;3.70;;;18.30;99.90;;;;;;5028545;28;20037;-61
2022/08/12 05:36:11;;;;;;;6.05;3.60;;;18.40;99.90;;;;;;5029855;28;20367;-62
2022/08/12 05:38:55;;;;;;;9.88;4.03;;;18.40;99.90;;;;;;5028138;28;20021;-61
2022/08/12 05:41:29;;;;;;;8.02;3.97;;;18.40;99.90;;;;;;5028444;28;20163;-61
2022/08/12 05:43:56;;;;;;;7.13;4.25;;;18.40;99.90;;;;;;5026147;28;20139;-61
2022/08/12 05:46:23;;;;;;;6.95;3.97;;;18.50;99.90;;;;;;5024632;28;20029;-61
2022/08/12 05:48:53;;;;;;;6.10;4.00;;;18.50;99.90;;;;;;5027921;28;20040;-62
2022/08/12 05:51:19;;;;;;;7.95;3.90;;;18.60;99.90;;;;;;5026873;28;20056;-62
2022/08/12 05:53:45;;;;;;;12.70;3.95;;;18.50;99.90;;;;;;5029870;28;20067;-62
2022/08/12 05:56:25;;;;;;;8.40;4.22;;;18.50;99.90;;;;;;5027636;28;20026;-61
2022/08/12 05:58:53;;;;;;;9.82;4.18;;;18.60;99.90;;;;;;5026801;28;20028;-61
2022/08/12 06:01:20;;;;;;;8.75;4.10;;;18.70;99.90;;;;;;5025608;28;20505;-61
2022/08/12 06:03:46;;;;;;;9.43;3.75;;;18.70;99.90;;;;;;5029987;28;20033;-61
2022/08/12 06:06:15;;;;;;;9.52;3.70;;;18.70;99.90;;;;;;5026043;28;20083;-62
2022/08/12 06:08:46;;;;;;;6.43;3.97;;;18.80;99.90;;;;;;5026548;28;20072;-60
2022/08/12 06:11:15;;;;;;;8.77;4.47;;;18.80;99.90;;;;;;5026331;28;20490;-60
2022/08/12 06:13:42;;;;;;;5.78;3.67;;;18.80;99.90;;;;;;5027018;28;20029;-62
2022/08/12 06:16:10;;;;;;;6.75;4.00;;;18.80;99.90;;;;;;5028165;28;20018;-60
2022/08/12 06:18:40;;;;;;;9.30;3.65;;;18.90;99.90;;;;;;5029491;28;20031;-60
2022/08/12 06:21:11;;;;;;;9.75;4.20;;;18.90;99.90;;;;;;5027083;28;20382;-60
2022/08/12 06:23:37;;;;;;;8.03;3.77;;;18.90;99.90;;;;;;5025048;28;20547;-61
2022/08/12 06:26:06;;;;;;;5.80;3.75;;;19.00;99.90;;;;;;5028621;28;20037;-61
2022/08/12 06:28:32;;;;;;;7.63;3.83;;;19.00;99.90;;;;;;5029009;28;20116;-62
2022/08/12 06:30:58;;;;;;;12.20;3.78;;;19.10;99.90;;;;;;5029635;28;20422;-61
2022/08/12 06:33:24;;;;;;;6.22;3.80;;;19.10;99.90;;;;;;5026899;28;20036;-62
2022/08/12 06:35:51;;;;;;;14.95;3.55;;;19.20;99.90;;;;;;5028816;28;20104;-61
2022/08/12 06:38:21;;;;;;;8.13;3.78;;;19.20;99.90;;;;;;5025665;28;20108;-61
2022/08/12 06:43:35;;;;;;;11.32;4.22;;;19.30;99.90;;;;;;5026345;28;20475;-61
2022/08/12 06:46:03;;;;;;;7.60;4.10;;;19.30;99.90;;;;;;5027139;28;20501;-62
2022/08/12 06:48:29;;;;;;;7.50;3.70;;;19.40;99.90;;;;;;5019864;28;20059;-61
2022/08/12 06:50:56;;;;;;;9.57;4.10;;;19.40;99.90;;;;;;5026143;28;20377;-59
2022/08/12 06:53:23;;;;;;;5.07;3.80;;;19.40;99.90;;;;;;5027343;28;20025;-60
2022/08/12 06:55:56;;;;;;;11.73;3.70;;;19.40;99.90;;;;;;5028031;28;20341;-60
2022/08/12 06:58:23;;;;;;;5.57;3.45;;;19.40;99.90;;;;;;5026986;28;20059;-61
2022/08/12 07:00:50;;;;;;;6.43;3.60;;;19.40;99.90;;;;;;5028255;28;20021;-61
2022/08/12 07:03:20;;;;;;;6.00;2.95;;;19.40;99.90;;;;;;5025081;28;20072;-61
2022/08/12 07:05:46;;;;;;;11.02;4.00;;;19.50;99.90;;;;;;5025605;28;20034;-59
2022/08/12 07:08:15;;;;;;;10.45;3.13;;;19.60;99.90;;;;;;5027161;28;20030;-61
2022/08/12 07:10:56;;;;;;;9.20;3.63;;;19.70;99.90;;;;;;5028778;28;20030;-61
2022/08/12 07:13:22;;;;;;;7.45;3.20;;;19.70;99.90;;;;;;5024630;28;20037;-61
2022/08/12 07:15:49;;;;;;;6.13;3.45;;;19.80;99.90;;;;;;5028441;28;20541;-61
2022/08/12 07:18:18;;;;;;;7.07;3.47;;;19.80;99.90;;;;;;5026804;28;20056;-61
2022/08/12 07:20:47;;;;;;;6.20;3.13;;;19.90;99.90;;;;;;5028650;28;20032;-61
2022/08/12 07:23:14;;;;;;;8.77;3.42;;;19.90;99.90;;;;;;5026865;28;20540;-61
2022/08/12 07:25:41;;;;;;;6.03;3.13;;;19.80;99.90;;;;;;5030042;28;20124;-61
2022/08/12 07:28:22;;;;;;;9.10;3.35;;;20.00;99.90;;;;;;5028850;28;20480;-62
2022/08/12 07:30:49;;;;;;;8.75;3.83;;;20.10;99.90;;;;;;5032345;28;20029;-61
2022/08/12 07:33:17;;;;;;;11.60;3.70;;;20.20;99.90;;;;;;5030184;28;20036;-61
2022/08/12 07:35:44;;;;;;;11.88;4.15;;;20.30;99.90;;;;;;5030238;28;20024;-62
2022/08/12 07:38:29;;;;;;;5.63;3.55;;;20.30;99.90;;;;;;5029591;28;20025;-61
2022/08/12 07:41:06;;;;;;;15.25;4.25;;;20.40;99.90;;;;;;5030859;28;20119;-61
2022/08/12 07:43:34;;;;;;;7.57;3.35;;;20.50;99.90;;;;;;5030012;28;20045;-61
2022/08/12 07:46:03;;;;;;;7.13;3.58;;;20.60;99.90;;;;;;5031725;28;20401;-61
2022/08/12 07:48:38;;;;;;;9.88;3.85;;;20.60;99.90;;;;;;5029985;28;20029;-61
2022/08/12 07:51:04;;;;;;;6.13;3.03;;;20.70;99.90;;;;;;5031444;28;20033;-61
2022/08/12 07:53:29;;;;;;;4.25;2.90;;;20.80;99.90;;;;;;5030396;28;20025;-61
2022/08/12 07:55:55;;;;;;;5.97;2.80;;;21.00;99.90;;;;;;5031046;28;20495;-61
2022/08/12 07:58:25;;;;;;;7.90;3.30;;;21.10;99.90;;;;;;5029070;28;20489;-61
2022/08/12 08:00:56;;;;;;;7.40;3.08;;;21.20;99.90;;;;;;5030676;28;20025;-61
2022/08/12 08:03:24;;;;;;;6.65;3.28;;;21.20;99.90;;;;;;5029731;28;20036;-61
2022/08/12 08:05:50;;;;;;;6.25;2.92;;;21.30;99.90;;;;;;5030969;28;20508;-60
2022/08/12 08:08:21;;;;;;;3.92;2.53;;;21.50;99.90;;;;;;5029885;28;20039;-61
2022/08/12 08:10:48;;;;;;;7.20;2.83;;;21.50;99.90;;;;;;5031692;28;20041;-61
2022/08/12 08:13:15;;;;;;;8.13;3.25;;;21.70;99.90;;;;;;5029354;28;20033;-61
2022/08/12 08:15:44;;;;;;;5.30;2.80;;;21.80;99.90;;;;;;5027807;28;20026;-60
2022/08/12 08:18:12;;;;;;;7.10;2.60;;;21.90;99.90;;;;;;5029290;28;20116;-62
2022/08/12 08:20:43;;;;;;;6.50;2.70;;;22.00;99.90;;;;;;5029374;28;20112;-62
2022/08/12 08:23:15;;;;;;;5.88;2.58;;;22.10;99.90;;;;;;5022278;28;20033;-62
2022/08/12 08:25:42;;;;;;;9.23;3.22;;;22.20;99.90;;;;;;5026209;28;20104;-63
2022/08/12 08:28:09;;;;;;;6.30;3.03;;;22.30;99.90;;;;;;5026884;28;20550;-63
2022/08/12 08:30:37;;;;;;;8.40;2.85;;;22.50;99.90;;;;;;5031255;28;20515;-62
2022/08/12 08:33:04;;;;;;;5.85;2.70;;;22.50;99.90;;;;;;5030454;28;20038;-62
2022/08/12 08:35:31;;;;;;;6.93;2.50;;;22.70;99.90;;;;;;5027203;28;20031;-62
2022/08/12 08:38:12;;;;;;;4.15;2.08;;;22.80;99.90;;;;;;5030577;28;20032;-62
2022/08/12 08:43:27;;;;;;;8.82;3.00;;;23.20;99.90;;;;;;5028572;28;20056;-63
2022/08/12 08:45:56;;;;;;;4.53;2.75;;;23.50;99.90;;;;;;5030442;28;20370;-63
2022/08/12 08:48:25;;;;;;;6.18;3.05;;;23.70;99.90;;;;;;5029129;28;20421;-63
2022/08/12 08:50:51;;;;;;;6.75;2.85;;;23.70;99.90;;;;;;5029603;28;20029;-63
2022/08/12 08:53:17;;;;;;;7.25;3.58;;;23.80;99.90;;;;;;5028242;28;20390;-61
2022/08/12 08:55:43;;;;;;;7.25;2.90;;;23.90;99.90;;;;;;5030587;28;20026;-63
2022/08/12 08:58:09;;;;;;;5.13;2.90;;;24.10;99.90;;;;;;5028168;28;20032;-61
2022/08/12 09:00:39;;;;;;;10.80;2.78;;;24.20;99.90;;;;;;5030801;28;20026;-62
2022/08/12 09:03:06;;;;;;;7.32;2.40;;;24.40;99.90;;;;;;5028856;28;20120;-62
2022/08/12 09:05:33;;;;;;;5.97;2.65;;;24.60;99.90;;;;;;5028340;28;20052;-63
2022/08/12 09:08:01;;;;;;;7.55;2.05;;;24.80;99.90;;;;;;5030499;28;20096;-63
2022/08/12 09:10:26;;;;;;;6.75;2.42;;;24.90;99.90;;;;;;5027986;28;20057;-64
2022/08/12 09:15:37;;;;;;;7.03;3.28;;;25.30;99.90;;;;;;5026555;28;20029;-63
2022/08/12 09:18:06;;;;;;;9.10;2.42;;;25.70;99.90;;;;;;5029569;28;20026;-63
2022/08/12 09:20:33;;;;;;;7.22;2.83;;;26.00;99.90;;;;;;5030287;28;20038;-63
2022/08/12 09:23:01;;;;;;;4.88;2.47;;;26.20;99.90;;;;;;5029021;28;20037;-63
2022/08/12 09:25:30;;;;;;;7.78;3.10;;;26.20;99.90;;;;;;5027811;28;20104;-63
2022/08/12 09:28:00;;;;;;;5.47;2.67;;;26.30;99.90;;;;;;5029226;28;20190;-63
2022/08/12 09:30:26;;;;;;;5.38;2.22;;;26.40;99.40;;;;;;5027990;28;20047;-63
2022/08/12 09:32:53;;;;;;;7.93;2.55;;;26.50;98.30;;;;;;5029056;28;20036;-63
2022/08/12 09:35:26;;;;;;;6.88;2.67;;;26.90;94.40;;;;;;5027764;28;20022;-63
2022/08/12 09:37:55;;;;;;;3.50;2.40;;;27.30;94.90;;;;;;5026373;28;20030;-62
2022/08/12 09:40:22;;;;;;;3.40;2.40;;;27.60;92.70;;;;;;5027772;28;20050;-60
2022/08/12 09:45:33;;;;;;;11.25;2.72;;;27.90;89.60;;;;;;5027341;28;20099;-62
2022/08/12 09:48:07;;;;;;;3.35;2.30;;;28.00;89.80;;;;;;5027820;28;20045;-62
2022/08/12 09:50:34;;;;;;;4.07;2.60;;;28.20;87.50;;;;;;5027608;28;20061;-62
2022/08/12 09:53:08;;;;;;;5.35;2.60;;;28.40;82.70;;;;;;5028878;28;20083;-61
2022/08/12 09:55:34;;;;;;;5.05;2.80;;;28.50;86.00;;;;;;5029412;28;20038;-62
2022/08/12 09:58:01;;;;;;;6.70;2.65;;;28.60;79.20;;;;;;5027502;28;20109;-61
2022/08/12 10:00:27;;;;;;;4.18;2.17;;;28.70;83.60;;;;;;5027572;28;20033;-61
2022/08/12 10:03:09;;;;;;;6.10;2.60;;;28.90;74.70;;;;;;5028016;28;20379;-61
2022/08/12 10:05:42;;;;;;;3.17;2.20;;;29.10;75.50;;;;;;5017633;28;20029;-61
2022/08/12 10:08:10;;;;;;;8.20;2.40;;;29.30;71.90;;;;;;5026091;28;20073;-62
2022/08/12 10:13:40;;;;;;;9.35;2.83;;;29.50;68.30;;;;;;5027380;28;20025;-62
2022/08/12 10:13:40;;;;;;;4.65;2.17;;;29.70;68.50;;;;;;5023392;28;20033;-62
2022/08/12 10:16:19;;;;;;;5.88;2.03;;;29.80;66.20;;;;;;5025729;28;20021;-62
2022/08/12 10:18:52;;;;;;;6.45;2.47;;;29.90;66.30;;;;;;5028134;28;20018;-62
2022/08/12 10:21:35;;;;;;;4.75;2.33;;;30.00;66.00;;;;;;5018993;28;20458;-62
2022/08/12 10:24:09;;;;;;;6.70;2.20;;;30.10;61.90;;;;;;5028349;28;20373;-61
2022/08/12 10:29:40;;;;;;;2.90;2.33;;;30.20;60.50;;;;;;5024712;28;20357;-62
2022/08/12 10:32:16;;;;;;;5.07;2.13;;;30.30;61.70;;;;;;5027680;28;20028;-60
2022/08/12 10:34:42;;;;;;;7.05;2.35;;;30.50;59.30;;;;;;5028796;28;20017;-61
2022/08/12 10:37:08;;;;;;;3.70;2.58;;;30.50;57.70;;;;;;5025286;28;20026;-61
2022/08/12 10:39:36;;;;;;;5.75;2.20;;;30.50;57.90;;;;;;5026857;28;20076;-61
2022/08/12 10:44:49;;;;;;;6.20;2.13;;;30.50;57.40;;;;;;5025948;28;20047;-61
2022/08/12 10:47:20;;;;;;;4.72;3.35;;;30.60;57.30;;;;;;5026737;28;20419;-61
2022/08/12 10:49:49;;;;;;;2.88;1.95;;;30.90;56.90;;;;;;5028581;28;20370;-62
2022/08/12 10:52:15;;;;;;;5.10;2.20;;;31.10;54.80;;;;;;5026711;28;20033;-61
2022/08/12 10:54:41;;;;;;;6.75;2.22;;;31.10;52.90;;;;;;5027249;28;20030;-62
2022/08/12 10:57:08;;;;;;;5.68;2.70;;;31.00;52.80;;;;;;5026132;28;20508;-61
2022/08/12 10:59:34;;;;;;;4.35;2.13;;;31.20;53.70;;;;;;5034002;28;20079;-61
2022/08/12 11:02:00;;;;;;;10.18;2.28;;;31.20;52.40;;;;;;5032830;28;20393;-61
2022/08/12 11:04:29;;;;;;;5.88;2.13;;;31.40;52.40;;;;;;5030975;28;20428;-62
2022/08/12 11:06:56;;;;;;;9.25;2.80;;;31.60;52.60;;;;;;5032318;28;20041;-61
2022/08/12 11:09:40;;;;;;;6.80;2.88;;;31.90;51.50;;;;;;5031501;28;20033;-60
2022/08/12 11:12:06;;;;;;;5.20;2.40;;;32.20;50.90;;;;;;5031695;28;20079;-62
2022/08/12 11:14:34;;;;;;;10.27;2.30;;;32.60;48.20;;;;;;5030006;28;20048;-62
2022/08/12 11:17:03;;;;;;;6.60;2.50;;;33.00;46.50;;;;;;5032068;28;20087;-63
2022/08/12 11:19:31;;;;;;;6.18;2.42;;;33.30;46.00;;;;;;5028889;28;20060;-62
2022/08/12 11:21:57;;;;;;;2.72;2.50;;;33.70;45.90;;;;;;5031739;28;20028;-61
2022/08/12 11:24:24;;;;;;;5.85;3.40;;;33.80;44.70;;;;;;5030278;28;20029;-61
2022/08/12 11:26:50;;;;;;;8.93;2.83;;;34.10;44.30;;;;;;5031076;28;20054;-63
2022/08/12 11:29:22;;;;;;;2.58;2.38;;;33.80;43.30;;;;;;5029127;28;20112;-62
2022/08/12 11:31:48;;;;;;;4.57;2.30;;;34.00;42.70;;;;;;5032060;28;20025;-62
2022/08/12 11:34:15;;;;;;;4.28;2.78;;;34.10;42.30;;;;;;5021714;28;20071;-61
2022/08/12 11:37:06;;;;;;;5.60;2.75;;;34.30;42.30;;;;;;5030784;28;20029;-63
2022/08/12 11:39:32;;;;;;;3.58;2.50;;;34.70;42.30;;;;;;5030562;28;20745;-62
2022/08/12 11:41:59;;;;;;;4.15;2.60;;;35.00;41.30;;;;;;5029739;28;20026;-63
2022/08/12 11:44:24;;;;;;;7.07;2.47;;;35.10;41.20;;;;;;5027956;28;20072;-62
2022/08/12 11:46:52;;;;;;;5.35;2.50;;;35.00;40.10;;;;;;5030988;28;20069;-62
2022/08/12 11:49:19;;;;;;;2.78;2.40;;;34.90;39.50;;;;;;5028442;28;20053;-61
2022/08/12 11:51:44;;;;;;;7.32;2.75;;;35.20;40.00;;;;;;5030912;28;20025;-62
2022/08/12 11:54:10;;;;;;;5.38;2.90;;;35.30;39.10;;;;;;5028584;28;20493;-61
2022/08/12 11:56:35;;;;;;;2.92;2.60;;;35.50;37.60;;;;;;5030580;28;20044;-62
2022/08/12 11:59:01;;;;;;;6.03;3.00;;;35.60;36.70;;;;;;5031232;28;20045;-62
2022/08/12 12:01:27;;;;;;;4.45;2.85;;;35.60;36.40;;;;;;5028709;28;20021;-61
2022/08/12 12:03:52;;;;;;;5.47;2.90;;;35.80;36.10;;;;;;5029544;28;20341;-62
2022/08/12 12:06:20;;;;;;;3.60;2.22;;;35.70;35.40;;;;;;5026799;28;20431;-61
2022/08/12 12:08:47;;;;;;;2.65;2.40;;;35.50;35.50;;;;;;5030554;28;20451;-61
2022/08/12 12:11:12;;;;;;;5.50;2.83;;;35.80;35.80;;;;;;5027566;28;20017;-62
2022/08/12 12:13:38;;;;;;;4.75;2.50;;;36.00;35.50;;;;;;5029355;28;20042;-61
2022/08/12 12:16:04;;;;;;;7.50;2.95;;;36.20;35.40;;;;;;5031207;28;20029;-63
2022/08/12 12:18:32;;;;;;;5.50;2.58;;;36.40;34.80;;;;;;5028252;28;20452;-63
2022/08/12 12:21:00;;;;;;;6.57;2.63;;;36.40;34.30;;;;;;5030523;28;20079;-64
2022/08/12 12:23:28;;;;;;;8.30;2.92;;;36.60;33.80;;;;;;5031365;28;20033;-62
2022/08/12 12:25:54;;;;;;;6.47;2.75;;;36.50;33.50;;;;;;5030382;28;20033;-61
2022/08/12 12:28:20;;;;;;;7.10;2.65;;;36.80;33.50;;;;;;5028339;28;20064;-61
2022/08/12 12:30:46;;;;;;;6.18;2.40;;;36.90;33.30;;;;;;5029608;28;20022;-61
2022/08/12 12:33:12;;;;;;;5.50;3.10;;;36.90;32.20;;;;;;5026256;28;20034;-61
2022/08/12 12:35:39;;;;;;;3.88;3.00;;;36.90;32.80;;;;;;5027591;28;20031;-61
2022/08/12 12:38:07;;;;;;;5.82;2.92;;;36.90;32.90;;;;;;5026975;28;20033;-63
2022/08/12 12:40:34;;;;;;;7.47;3.15;;;37.10;32.80;;;;;;5030133;28;20061;-63
2022/08/12 12:43:01;;;;;;;5.25;2.60;;;36.90;32.20;;;;;;5024889;28;20088;-63
2022/08/12 12:45:27;;;;;;;4.18;2.40;;;36.90;31.40;;;;;;5028609;28;20029;-65
2022/08/12 12:48:08;;;;;;;7.25;2.45;;;36.90;31.90;;;;;;5030121;28;20036;-62
2022/08/12 12:50:41;;;;;;;;;;;37.00;31.40;;;;;;5022468;28;20036;-62
2022/08/12 12:53:08;;;;;;;4.03;2.55;;;37.40;31.30;;;;;;5028536;28;19931;-61
2022/08/12 12:55:36;;;;;;;7.00;2.90;;;37.40;31.60;;;;;;5028875;28;20044;-62
2022/08/12 12:58:10;;;;;;;5.95;3.33;;;37.80;31.40;;;;;;5028480;28;20561;-64
2022/08/12 13:00:41;;;;;;;4.53;2.92;;;37.70;31.40;;;;;;5030419;28;20063;-64
2022/08/12 13:03:07;;;;;;;62.42;6.78;;;38.00;31.00;;;;;;5029364;28;20497;-61
2022/08/12 13:05:35;;;;;;;7.53;2.90;;;38.20;30.70;;;;;;5029311;28;20033;-62
2022/08/12 13:08:03;;;;;;;8.70;3.70;;;37.90;30.40;;;;;;5029470;28;20045;-64
2022/08/12 13:10:31;;;;;;;5.32;2.78;;;37.70;30.40;;;;;;5027987;28;20079;-64
2022/08/12 13:12:57;;;;;;;8.77;3.28;;;37.70;30.00;;;;;;5025743;28;20120;-63
2022/08/12 13:15:23;;;;;;;6.10;3.17;;;37.80;30.40;;;;;;5026255;28;20137;-62
2022/08/12 13:17:51;;;;;;;10.15;3.10;;;38.30;30.30;;;;;;5029246;28;20053;-62
2022/08/12 13:20:19;;;;;;;2.60;2.40;;;38.60;30.40;;;;;;5028063;28;20472;-62
2022/08/12 13:22:46;;;;;;;5.35;3.00;;;38.70;30.10;;;;;;5026353;28;20422;-62
2022/08/12 13:25:14;;;;;;;4.65;2.78;;;38.90;29.80;;;;;;5027524;28;20030;-62
2022/08/12 13:27:46;;;;;;;8.23;3.15;;;39.10;29.60;;;;;;5025934;28;20065;-62
2022/08/12 13:30:15;;;;;;;14.18;4.00;;;39.10;29.60;;;;;;5024039;28;20366;-64
2022/08/12 13:32:50;;;;;;;7.72;4.68;;;39.10;29.60;;;;;;5028303;28;20029;-64
2022/08/12 13:35:16;;;;;;;8.15;3.70;;;39.40;29.00;;;;;;5025145;28;20018;-63
2022/08/12 13:37:54;;;;;;;7.75;3.10;;;39.30;29.50;;;;;;5027871;28;20037;-63
2022/08/12 13:40:26;;;;;;;5.22;3.03;;;39.50;29.50;;;;;;5027048;28;20029;-63
2022/08/12 13:42:56;;;;;;;6.03;2.63;;;39.50;28.90;;;;;;5028523;28;20389;-64
2022/08/12 13:45:23;;;;;;;10.27;3.20;;;39.60;29.20;;;;;;5019890;28;20508;-65
2022/08/12 13:47:56;;;;;;;3.58;3.20;;;40.10;29.10;;;;;;5020116;28;20040;-65
2022/08/12 13:50:36;;;;;;;4.38;2.90;;;40.00;28.70;;;;;;5020317;28;20809;-64
2022/08/12 13:53:13;;;;;;;3.38;2.95;;;39.40;29.10;;;;;;5022973;28;20025;-64
2022/08/12 13:55:44;;;;;;;4.70;3.05;;;39.30;29.10;;;;;;5023697;28;20044;-63
2022/08/12 13:58:11;;;;;;;5.35;3.05;;;39.40;29.10;;;;;;5019802;28;20033;-63
2022/08/12 14:00:37;;;;;;;4.20;3.15;;;39.10;29.20;;;;;;5030577;28;20435;-63
2022/08/12 14:03:03;;;;;;;3.35;2.60;;;38.80;29.50;;;;;;5024448;28;20443;-64
2022/08/12 14:05:29;;;;;;;5.75;3.05;;;38.90;29.60;;;;;;5027825;28;20029;-63
2022/08/12 14:08:06;;;;;;;7.78;3.03;;;39.50;29.20;;;;;;5024876;28;20037;-63
2022/08/12 14:10:37;;;;;;;5.40;2.95;;;39.70;28.60;;;;;;5024182;28;20041;-64
2022/08/12 14:13:22;;;;;;;5.78;3.30;;;39.80;29.00;;;;;;5024828;28;20029;-64
2022/08/12 14:15:51;;;;;;;9.43;4.22;;;40.20;28.80;;;;;;5024524;28;20555;-64
2022/08/12 14:18:19;;;;;;;7.78;3.08;;;40.70;28.50;;;;;;5022042;28;20025;-64
2022/08/12 14:20:47;;;;;;;8.32;3.22;;;40.20;28.50;;;;;;5026626;28;20091;-64
2022/08/12 14:23:14;;;;;;;7.20;3.05;;;40.20;28.60;;;;;;5024505;28;20481;-64
2022/08/12 14:25:39;;;;;;;8.18;3.60;;;39.80;28.30;;;;;;5025896;28;20061;-63
2022/08/12 14:28:10;;;;;;;6.18;2.78;;;39.40;28.80;;;;;;5024113;28;20064;-64
2022/08/12 14:30:52;;;;;;;3.72;3.00;;;39.80;29.00;;;;;;5024038;28;20039;-63
2022/08/12 14:33:22;;;;;;;4.43;2.97;;;39.80;28.70;;;;;;5023943;28;20079;-64
2022/08/12 14:35:48;;;;;;;8.02;3.70;;;40.40;28.50;;;;;;5027948;28;20047;-64
2022/08/12 14:38:21;;;;;;;5.95;2.90;;;40.70;28.20;;;;;;5018475;28;20033;-63
2022/08/12 14:40:55;;;;;;;6.03;2.95;;;40.60;28.00;;;;;;5017390;28;20044;-64
2022/08/12 14:43:32;;;;;;;7.38;3.80;;;40.90;27.50;;;;;;5012665;28;20061;-64